Time;durP1;ratioP1;P1;durP2;ratioP2;P2;SDS_P1;SDS_P2;PMS_P1;PMS_P2;Temp;Humidity;BMP_temperature;BMP_pressure;BME280_temperature;BME280_humidity;BME280_pressure;Samples;Min_cycle;Max_cycle;Signal;HPM_P1;HPM_P2
2022/03/22 00:00:30;;;;;;;7.22;3.47;;;;;;;23.88;12.32;102609.28;5076224;28;20078;-77
2022/03/22 00:02:57;;;;;;;8.02;3.60;;;;;;;23.87;12.46;102612.25;5075874;28;20029;-77
2022/03/22 00:05:22;;;;;;;5.97;3.20;;;;;;;23.89;12.38;102610.16;5076322;28;20448;-77
2022/03/22 00:07:48;;;;;;;8.02;3.70;;;;;;;23.89;12.41;102604.69;5057825;28;20045;-78
2022/03/22 00:10:14;;;;;;;8.70;3.95;;;;;;;23.88;12.38;102605.72;5057867;28;20029;-78
2022/03/22 00:12:40;;;;;;;5.50;3.15;;;;;;;23.88;12.18;102606.56;5057749;28;20032;-78
2022/03/22 00:15:06;;;;;;;7.88;3.97;;;;;;;23.88;12.24;102603.00;5075687;28;20048;-78
2022/03/22 00:17:31;;;;;;;6.20;3.55;;;;;;;23.88;12.50;102603.00;5075590;28;20095;-77
2022/03/22 00:19:57;;;;;;;5.68;3.08;;;;;;;23.87;12.42;102604.06;5075682;28;20025;-78
2022/03/22 00:22:22;;;;;;;6.20;3.20;;;;;;;23.85;12.15;102597.97;5075855;28;20497;-79
2022/03/22 00:24:47;;;;;;;5.57;3.33;;;;;;;23.88;12.19;102595.63;5075506;28;20467;-76
2022/03/22 00:27:13;;;;;;;7.53;3.75;;;;;;;23.84;12.35;102590.88;5076036;28;20025;-78
2022/03/22 00:29:38;;;;;;;5.45;3.58;;;;;;;23.87;12.21;102598.59;5075907;28;20020;-77
2022/03/22 00:32:08;;;;;;;7.53;3.53;;;;;;;23.87;12.39;102601.31;5075518;28;20028;-76
2022/03/22 00:34:44;;;;;;;6.55;3.45;;;;;;;23.88;12.38;102597.53;5075332;28;20079;-76
2022/03/22 00:37:14;;;;;;;7.63;3.45;;;;;;;23.84;12.47;102596.31;5074949;28;20040;-75
2022/03/22 00:39:44;;;;;;;6.00;3.50;;;;;;;23.83;12.51;102589.19;5075331;28;20095;-76
2022/03/22 00:42:10;;;;;;;6.50;3.22;;;;;;;23.85;12.45;102597.97;5074858;28;20444;-75
2022/03/22 00:44:37;;;;;;;8.27;4.28;;;;;;;23.74;12.44;102575.78;5075189;28;20032;-75
2022/03/22 00:47:04;;;;;;;6.50;3.83;;;;;;;23.84;12.46;102588.13;5075058;28;20028;-76
2022/03/22 00:49:32;;;;;;;7.15;3.97;;;;;;;23.83;12.41;102589.19;5075736;28;20025;-74
2022/03/22 00:51:59;;;;;;;6.22;3.15;;;;;;;23.83;12.38;102589.19;5075001;28;20029;-75
2022/03/22 00:54:24;;;;;;;7.35;3.45;;;;;;;23.81;12.20;102592.13;5074742;28;20024;-76
2022/03/22 00:56:52;;;;;;;6.15;3.28;;;;;;;23.84;12.35;102596.31;5073747;28;20055;-76
2022/03/22 01:02:02;;;;;;;7.57;3.42;;;;;;;23.84;12.42;102580.78;5074676;28;20513;-76
2022/03/22 01:04:27;;;;;;;7.32;3.70;;;;;;;23.78;12.26;102582.47;5074797;28;20032;-75
2022/03/22 01:06:53;;;;;;;6.82;3.50;;;;;;;23.81;12.27;102584.78;5065009;28;20045;-75
2022/03/22 01:09:18;;;;;;;7.88;3.50;;;;;;;23.83;12.09;102583.72;5054714;28;20467;-76
2022/03/22 01:11:44;;;;;;;8.13;3.92;;;;;;;23.81;12.19;102579.31;5054969;28;20352;-75
2022/03/22 01:14:09;;;;;;;6.03;3.10;;;;;;;23.84;12.46;102579.94;5054493;28;20429;-75
2022/03/22 01:16:35;;;;;;;6.68;3.28;;;;;;;23.78;12.09;102571.56;5054359;28;20033;-76
2022/03/22 01:19:00;;;;;;;6.88;3.47;;;;;;;23.81;12.25;102579.31;5054483;28;20033;-76
2022/03/22 01:21:25;;;;;;;7.93;3.50;;;;;;;23.80;12.39;102574.03;5054369;28;20074;-74
2022/03/22 01:23:52;;;;;;;6.30;3.47;;;;;;;23.80;12.21;102572.16;5053472;28;20383;-75
2022/03/22 01:26:19;;;;;;;6.63;3.65;;;;;;;23.78;12.42;102579.75;5054326;28;20091;-76
2022/03/22 01:28:45;;;;;;;8.30;3.70;;;;;;;23.77;12.30;102569.88;5054390;28;20021;-75
2022/03/22 01:31:10;;;;;;;6.13;3.20;;;;;;;23.70;12.18;102555.44;5054347;28;20051;-76
2022/03/22 01:33:36;;;;;;;6.47;3.40;;;;;;;23.78;12.28;102565.25;5053864;28;20111;-75
2022/03/22 01:36:01;;;;;;;5.78;3.13;;;;;;;23.80;12.25;102563.97;5053932;28;20032;-75
2022/03/22 01:38:26;;;;;;;7.25;3.42;;;;;;;23.78;12.46;102559.78;5054110;28;20032;-74
2022/03/22 01:40:52;;;;;;;5.78;3.33;;;;;;;23.78;12.38;102555.19;5054140;28;20107;-75
2022/03/22 01:43:17;;;;;;;6.93;3.28;;;;;;;23.75;12.34;102552.88;5036272;28;20040;-75
2022/03/22 01:45:44;;;;;;;7.95;3.50;;;;;;;23.74;12.39;102551.19;5054033;28;20455;-75
2022/03/22 01:48:10;;;;;;;7.75;3.25;;;;;;;23.77;12.50;102552.66;5036446;28;20056;-76
2022/03/22 01:50:36;;;;;;;7.43;3.50;;;;;;;23.75;12.40;102552.88;5054023;28;20029;-76
2022/03/22 01:53:02;;;;;;;6.55;3.65;;;;;;;23.73;12.46;102555.00;5054594;28;20112;-75
2022/03/22 01:55:27;;;;;;;7.72;3.35;;;;;;;23.75;12.21;102550.16;5053947;28;20538;-75
2022/03/22 01:57:54;;;;;;;6.53;3.10;;;;;;;23.76;12.48;102562.72;5053857;28;20021;-76
2022/03/22 02:00:20;;;;;;;5.88;3.70;;;;;;;23.73;12.47;102546.81;5053845;28;20420;-74
2022/03/22 02:08:29;;;;;;;7.20;3.55;;;;;;;23.76;12.37;102551.81;4992261;28;20065;-75
2022/03/22 02:10:56;;;;;;;5.82;3.35;;;;;;;23.72;12.41;102550.59;4991976;28;20030;-75
2022/03/22 02:13:21;;;;;;;5.85;3.63;;;;;;;23.71;12.25;102548.91;4991946;28;20581;-76
2022/03/22 02:15:52;;;;;;;5.88;3.30;;;;;;;23.71;12.38;102548.91;4992298;28;20039;-79
2022/03/22 02:18:17;;;;;;;8.20;3.50;;;;;;;23.73;12.22;102546.81;4992240;28;20093;-78
2022/03/22 02:20:43;;;;;;;7.40;3.65;;;;;;;23.73;12.37;102541.34;4992165;28;20034;-78
2022/03/22 02:23:16;;;;;;;6.35;3.25;;;;;;;23.74;12.33;102540.28;4992020;28;20081;-78
2022/03/22 02:25:41;;;;;;;6.25;3.72;;;;;;;23.74;12.31;102547.66;4992307;28;20501;-77
2022/03/22 02:28:07;;;;;;;6.47;3.55;;;;;;;23.71;12.27;102534.44;4991908;28;20034;-78
2022/03/22 02:30:33;;;;;;;5.72;3.03;;;;;;;23.65;12.43;102522.53;4991958;28;20053;-78
2022/03/22 02:33:01;;;;;;;5.78;3.22;;;;;;;23.69;12.61;102523.75;4992011;28;20057;-78
2022/03/22 02:35:26;;;;;;;7.60;4.20;;;;;;;23.70;12.58;102528.16;4995071;28;20037;-77
2022/03/22 02:37:52;;;;;;;5.70;3.08;;;;;;;23.71;12.51;102531.72;4995995;28;20042;-78
2022/03/22 02:40:18;;;;;;;7.15;3.55;;;;;;;23.71;12.31;102529.81;4995859;28;20030;-79
2022/03/22 02:42:45;;;;;;;7.88;3.75;;;;;;;23.68;12.33;102533.00;4995703;28;20173;-77
2022/03/22 02:45:11;;;;;;;8.07;3.67;;;;;;;23.68;12.44;102529.41;5035662;28;20092;-75
2022/03/22 02:47:40;;;;;;;6.05;3.63;;;;;;;23.68;12.25;102527.53;5037427;28;20100;-77
2022/03/22 02:50:06;;;;;;;6.45;3.53;;;;;;;23.69;12.54;102534.66;5037205;28;20456;-78
2022/03/22 02:52:32;;;;;;;7.35;3.85;;;;;;;23.67;12.21;102525.88;5037448;28;20483;-75
2022/03/22 02:54:57;;;;;;;5.93;3.25;;;;;;;23.69;12.17;102523.75;5037361;28;20036;-74
2022/03/22 02:57:23;;;;;;;6.15;3.72;;;;;;;23.70;12.36;102530.03;5037231;28;20021;-75
2022/03/22 02:59:48;;;;;;;6.40;3.38;;;;;;;23.69;12.10;102523.75;5036909;28;20021;-77
2022/03/22 03:02:13;;;;;;;5.95;3.28;;;;;;;23.69;12.11;102522.91;5036952;28;20475;-75
2022/03/22 03:04:39;;;;;;;4.13;2.85;;;;;;;23.68;12.22;102516.63;5035935;28;20038;-75
2022/03/22 03:07:04;;;;;;;5.03;3.20;;;;;;;23.68;12.11;102521.22;5047389;28;20379;-76
2022/03/22 03:09:30;;;;;;;5.53;3.20;;;;;;;23.68;12.25;102527.53;5056927;28;20021;-75
2022/03/22 03:11:55;;;;;;;6.05;3.45;;;;;;;23.69;12.10;102522.91;5057391;28;20031;-75
2022/03/22 03:14:38;;;;;;;5.95;3.13;;;;;;;23.71;12.01;102523.53;5059936;28;20382;-74
2022/03/22 03:17:05;;;;;;;6.47;3.50;;;;;;;23.68;11.95;102524.81;5076479;28;20036;-75
2022/03/22 03:19:31;;;;;;;5.78;2.97;;;;;;;23.67;12.18;102520.41;5077043;28;20032;-75
2022/03/22 03:21:56;;;;;;;5.45;3.13;;;;;;;23.67;12.22;102520.41;5076817;28;20025;-75
2022/03/22 03:24:21;;;;;;;7.03;3.03;;;;;;;23.68;11.90;102524.81;5076355;28;20497;-76
2022/03/22 03:26:47;;;;;;;5.93;3.13;;;;;;;23.66;12.28;102513.25;5076176;28;20086;-75
2022/03/22 03:29:12;;;;;;;5.95;2.95;;;;;;;23.66;11.99;102516.00;5076590;28;20036;-75
2022/03/22 03:31:38;;;;;;;5.85;3.20;;;;;;;23.66;11.90;102518.72;5076740;28;20020;-75
2022/03/22 03:34:04;;;;;;;5.65;3.13;;;;;;;23.67;12.04;102519.56;5076083;28;20478;-76
2022/03/22 03:36:29;;;;;;;7.47;3.22;;;;;;;23.64;12.04;102515.38;5076432;28;20025;-75
2022/03/22 03:38:55;;;;;;;5.80;3.15;;;;;;;23.65;11.92;102516.25;5076424;28;20031;-75
2022/03/22 03:47:03;;;;;;;6.03;2.72;;;;;;;23.65;11.91;102519.81;5076393;28;20099;-75
2022/03/22 03:47:07;;;;;;;4.65;3.08;;;;;;;23.65;12.09;102516.25;5075616;28;20036;-75
2022/03/22 03:49:42;;;;;;;7.70;3.33;;;;;;;23.66;12.09;102518.72;5075897;28;20055;-75
2022/03/22 03:52:10;;;;;;;4.68;2.92;;;;;;;23.65;12.07;102528.00;5076252;28;20025;-76
2022/03/22 03:54:36;;;;;;;5.32;2.83;;;;;;;23.63;11.68;102519.19;5076151;28;20020;-76
2022/03/22 03:57:02;;;;;;;5.22;2.78;;;;;;;23.60;11.95;102522.38;5076186;28;20098;-74
2022/03/22 03:59:27;;;;;;;6.30;3.33;;;;;;;23.61;11.78;102526.75;5076006;28;20029;-75
2022/03/22 04:01:53;;;;;;;5.78;2.70;;;;;;;23.60;11.76;102516.91;5075633;28;20518;-77
2022/03/22 04:04:19;;;;;;;6.85;3.47;;;;;;;23.60;11.90;102520.47;5075876;28;20039;-76
2022/03/22 04:06:45;;;;;;;5.10;3.28;;;;;;;23.61;11.71;102521.28;5075594;28;20044;-75
2022/03/22 04:09:10;;;;;;;6.57;3.05;;;;;;;23.59;11.72;102512.50;5075787;28;20059;-75
2022/03/22 04:11:36;;;;;;;5.95;3.55;;;;;;;23.60;11.85;102519.63;5075677;28;20028;-75
2022/03/22 04:14:01;;;;;;;4.85;3.00;;;;;;;23.62;11.75;102523.78;5075277;28;20475;-76
2022/03/22 04:16:26;;;;;;;4.72;2.85;;;;;;;23.59;11.77;102529.72;5075689;28;20025;-76
2022/03/22 04:18:52;;;;;;;4.70;3.20;;;;;;;23.60;11.86;102533.28;5057510;28;20037;-74
2022/03/22 04:21:17;;;;;;;5.55;2.80;;;;;;;23.60;11.80;102530.56;5075701;28;20025;-75
2022/03/22 04:23:42;;;;;;;5.93;2.70;;;;;;;23.60;12.21;102525.91;5075679;28;20032;-74
2022/03/22 04:26:08;;;;;;;3.80;2.50;;;;;;;23.59;12.21;102529.72;5075231;28;20359;-75
2022/03/22 04:34:01;;;;;;;3.25;2.20;;;;;;;23.60;11.95;102516.91;5075228;28;20127;-77
2022/03/22 04:36:28;;;;;;;3.50;2.03;;;;;;;23.60;11.90;102515.00;5075672;28;20020;-77
2022/03/22 04:38:55;;;;;;;4.85;2.63;;;;;;;23.60;11.92;102519.63;5075654;28;20047;-78
2022/03/22 04:41:20;;;;;;;3.90;2.15;;;;;;;23.61;11.89;102513.09;5075187;28;20048;-79
2022/03/22 04:43:46;;;;;;;3.30;2.08;;;;;;;23.60;12.02;102508.72;5057340;28;20485;-77
2022/03/22 04:46:11;;;;;;;4.82;2.30;;;;;;;23.59;11.70;102507.03;5075296;28;20050;-78
2022/03/22 04:48:36;;;;;;;5.38;2.70;;;;;;;23.61;11.77;102510.38;5075613;28;20039;-78
2022/03/22 04:56:48;;;;;;;3.03;2.30;;;;;;;23.52;11.84;102506.25;5074642;28;20032;-78
2022/03/22 04:59:15;;;;;;;3.97;2.80;;;;;;;23.48;11.88;102507.78;5073841;28;20020;-78
2022/03/22 05:01:42;;;;;;;5.38;2.65;;;;;;;23.58;12.09;102499.94;5075050;28;20106;-78
2022/03/22 05:04:11;;;;;;;5.65;2.63;;;;;;;23.63;12.01;102500.91;5075037;28;20070;-78
2022/03/22 05:06:37;;;;;;;8.10;3.30;;;;;;;23.68;11.71;102494.78;5067689;28;20068;-78
2022/03/22 05:09:04;;;;;;;5.45;3.20;;;;;;;23.72;11.80;102506.91;5054608;28;20082;-79
2022/03/22 05:11:30;;;;;;;7.18;3.47;;;;;;;23.76;11.61;102502.66;5054440;28;20456;-78
2022/03/22 05:13:56;;;;;;;6.13;3.38;;;;;;;23.77;11.82;102500.78;5054359;28;20025;-78
2022/03/22 05:16:21;;;;;;;4.57;3.15;;;;;;;23.79;12.01;102499.50;5054540;28;20076;-79
2022/03/22 05:18:48;;;;;;;5.13;3.00;;;;;;;23.81;12.00;102502.84;5054782;28;20093;-78
2022/03/22 05:21:13;;;;;;;4.07;2.40;;;;;;;23.75;11.84;102494.69;5054260;28;20028;-79
2022/03/22 05:23:39;;;;;;;5.50;2.70;;;;;;;23.86;12.24;102506.84;5054407;28;20433;-76
2022/03/22 05:26:04;;;;;;;4.47;2.65;;;;;;;23.95;11.84;102511.75;5054649;28;20029;-75
2022/03/22 05:28:30;;;;;;;5.45;2.83;;;;;;;24.00;11.86;102508.34;5054187;28;20071;-75
2022/03/22 05:31:01;;;;;;;6.38;2.70;;;;;;;24.02;12.23;102505.41;5054327;28;20092;-75
2022/03/22 05:33:26;;;;;;;3.25;2.40;;;;;;;24.09;12.36;102508.88;5054496;28;20029;-74
2022/03/22 05:35:53;;;;;;;6.25;2.58;;;;;;;24.10;11.39;102514.13;5054104;28;20045;-75
2022/03/22 05:38:19;;;;;;;4.72;2.90;;;;;;;24.13;11.69;102500.03;5053776;28;20112;-75
2022/03/22 05:40:45;;;;;;;4.05;2.80;;;;;;;24.11;11.64;102498.56;5054250;28;20029;-73
2022/03/22 05:43:10;;;;;;;4.75;2.92;;;;;;;24.19;11.74;102490.06;5053999;28;20343;-74
2022/03/22 05:45:36;;;;;;;7.80;2.90;;;;;;;24.26;11.68;102490.81;5054629;28;20029;-74
2022/03/22 05:48:02;;;;;;;4.30;2.60;;;;;;;24.25;11.86;102496.50;5054213;28;20052;-74
2022/03/22 05:50:27;;;;;;;4.88;3.05;;;;;;;24.29;12.14;102495.84;5054591;28;20056;-74
2022/03/22 05:52:53;;;;;;;5.53;2.85;;;;;;;24.34;12.54;102497.91;5053858;28;20025;-74
2022/03/22 05:55:18;;;;;;;3.90;2.72;;;;;;;24.42;12.04;102505.75;5054011;28;20033;-77
2022/03/22 05:57:44;;;;;;;5.10;2.83;;;;;;;24.45;11.99;102494.38;5053788;28;20378;-76
2022/03/22 06:00:10;;;;;;;4.68;2.78;;;;;;;24.44;11.77;102498.19;5053911;28;20443;-75
2022/03/22 06:02:37;;;;;;;6.95;2.58;;;;;;;24.46;12.15;102497.97;5053658;28;20096;-75
2022/03/22 06:05:05;;;;;;;5.30;2.50;;;;;;;24.45;11.96;102486.16;5053865;28;20020;-76
2022/03/22 06:07:30;;;;;;;4.85;2.53;;;;;;;24.45;12.11;102488.09;5067689;28;20097;-75
2022/03/22 06:09:55;;;;;;;3.60;2.80;;;;;;;24.55;11.91;102493.88;5073310;28;20029;-77
2022/03/22 06:12:21;;;;;;;4.82;2.65;;;;;;;24.54;12.22;102486.72;5073394;28;20096;-76
2022/03/22 06:14:46;;;;;;;3.50;2.20;;;;;;;24.51;12.06;102487.16;5073917;28;20029;-77
2022/03/22 06:17:12;;;;;;;5.15;2.70;;;;;;;24.52;14.14;102484.19;5074139;28;20039;-76
2022/03/22 06:19:37;;;;;;;4.28;3.00;;;;;;;24.58;14.10;102489.81;5074095;28;20021;-77
2022/03/22 06:22:03;;;;;;;4.78;2.33;;;;;;;24.63;13.22;102473.56;5056154;28;20082;-75
2022/03/22 06:24:29;;;;;;;3.22;2.35;;;;;;;24.71;12.65;102486.91;5074273;28;20465;-76
2022/03/22 06:26:54;;;;;;;3.10;1.90;;;;;;;24.69;12.96;102478.94;5074642;28;20397;-75
2022/03/22 06:29:19;;;;;;;2.08;1.88;;;;;;;24.78;12.88;102482.19;5073964;28;20078;-76
2022/03/22 06:31:45;;;;;;;3.25;1.70;;;;;;;24.71;12.85;102482.28;5073166;28;20025;-76
2022/03/22 06:34:10;;;;;;;2.45;2.17;;;;;;;24.77;12.83;102480.53;5072874;28;20354;-77
2022/03/22 06:36:35;;;;;;;2.33;2.00;;;;;;;24.82;12.82;102482.56;5074979;28;20028;-79
2022/03/22 06:39:02;;;;;;;3.92;2.22;;;;;;;24.78;12.67;102479.44;5073796;28;20029;-77
2022/03/22 06:41:27;;;;;;;5.90;2.50;;;;;;;24.81;12.83;102469.97;5057141;28;20412;-76
2022/03/22 06:43:53;;;;;;;2.40;1.90;;;;;;;24.84;12.85;102475.78;5074475;28;20028;-76
2022/03/22 06:46:19;;;;;;;2.90;2.13;;;;;;;24.84;13.05;102470.31;5073980;28;20086;-76
2022/03/22 06:48:44;;;;;;;4.20;1.80;;;;;;;24.78;13.12;102476.72;5075136;28;20025;-75
2022/03/22 06:51:09;;;;;;;3.65;1.67;;;;;;;24.82;13.25;102468.88;5074409;28;20021;-75
2022/03/22 06:53:35;;;;;;;2.17;1.77;;;;;;;24.92;13.22;102469.16;5073234;28;20032;-75
2022/03/22 06:56:00;;;;;;;1.73;1.63;;;;;;;24.82;13.33;102475.19;5077056;28;20016;-75
2022/03/22 06:58:27;;;;;;;1.70;1.60;;;;;;;24.89;13.73;102462.25;5081733;28;20046;-75
2022/03/22 07:00:55;;;;;;;1.83;1.73;;;;;;;25.02;13.25;102471.31;5076867;28;20055;-76
2022/03/22 07:03:20;;;;;;;3.30;1.83;;;;;;;25.00;13.40;102468.81;5084362;28;20056;-76
2022/03/22 07:05:45;;;;;;;1.98;1.70;;;;;;;25.05;13.57;102466.22;5087558;28;20020;-75
2022/03/22 07:08:12;;;;;;;3.92;1.88;;;;;;;25.08;13.78;102470.41;5086261;28;20074;-75
2022/03/22 07:10:38;;;;;;;2.17;1.67;;;;;;;25.14;13.91;102468.63;5085136;28;20025;-75
2022/03/22 07:13:05;;;;;;;1.80;1.70;;;;;;;25.19;13.81;102466.00;5073951;28;20401;-74
2022/03/22 07:15:37;;;;;;;5.10;2.10;;;;;;;25.11;13.51;102453.50;5082533;28;20061;-76
2022/03/22 07:18:12;;;;;;;3.33;2.53;;;;;;;25.15;13.17;102459.31;5109278;28;20082;-75
2022/03/22 07:20:38;;;;;;;4.60;2.63;;;;;;;24.99;14.29;102458.09;5115037;28;20083;-74
2022/03/22 07:23:03;;;;;;;7.03;3.20;;;;;;;24.98;13.94;102456.47;5115750;28;20024;-75
2022/03/22 07:25:29;;;;;;;3.90;3.20;;;;;;;25.17;13.87;102458.03;5116990;28;20008;-76
2022/03/22 07:27:55;;;;;;;4.80;4.00;;;;;;;24.64;14.55;102456.09;5115428;28;20026;-77
2022/03/22 07:30:20;;;;;;;3.47;2.72;;;;;;;24.61;14.33;102457.41;5112086;28;20040;-75
2022/03/22 07:32:46;;;;;;;4.00;2.90;;;;;;;24.78;14.06;102460.31;5114700;28;20058;-78
2022/03/22 07:35:12;;;;;;;2.78;2.55;;;;;;;25.04;13.57;102458.25;5113216;28;20032;-75
2022/03/22 07:37:37;;;;;;;4.03;2.10;;;;;;;25.20;13.36;102456.72;5112137;28;20115;-78
2022/03/22 07:40:04;;;;;;;2.38;1.98;;;;;;;25.14;13.32;102446.72;5119388;28;20036;-81
2022/03/22 07:42:30;;;;;;;2.60;2.15;;;;;;;25.26;12.98;102453.06;5120144;28;20028;-80
2022/03/22 07:45:00;;;;;;;3.72;2.60;;;;;;;25.34;13.20;102458.22;5119349;28;20038;-80
2022/03/22 07:47:25;;;;;;;6.03;3.58;;;;;;;25.30;13.14;102452.38;5113836;28;20027;-81
2022/03/22 07:55:18;;;;;;;8.93;5.30;;;;;;;25.38;13.52;102442.97;5098576;28;20047;-80
2022/03/22 07:57:44;;;;;;;10.45;5.82;;;;;;;25.42;13.21;102443.31;5098160;28;20024;-81
2022/03/22 08:00:10;;;;;;;11.23;6.18;;;;;;;25.45;13.18;102445.59;5097486;28;20043;-80
2022/03/22 08:02:37;;;;;;;11.77;6.82;;;;;;;25.49;13.51;102446.75;5099023;28;20020;-80
2022/03/22 08:05:06;;;;;;;11.13;6.55;;;;;;;25.45;13.29;102438.19;5097900;28;20044;-81
2022/03/22 08:07:32;;;;;;;8.20;5.20;;;;;;;25.47;13.38;102438.81;5096551;28;20040;-80
2022/03/22 08:09:57;;;;;;;8.30;4.55;;;;;;;25.51;13.70;102441.06;5095893;28;20031;-80
2022/03/22 08:12:23;;;;;;;7.75;4.65;;;;;;;25.51;13.50;102439.19;5096812;28;20028;-81
2022/03/22 08:14:48;;;;;;;7.38;4.30;;;;;;;25.60;13.60;102445.94;5097230;28;20048;-77
2022/03/22 08:17:13;;;;;;;6.75;4.40;;;;;;;25.57;13.31;102443.69;5095148;28;20453;-79
2022/03/22 08:19:39;;;;;;;6.93;3.83;;;;;;;25.59;13.10;102443.44;5096625;28;20024;-79
2022/03/22 08:22:06;;;;;;;5.57;3.72;;;;;;;25.50;13.04;102437.50;5096580;28;20125;-79
2022/03/22 08:24:33;;;;;;;6.80;3.35;;;;;;;25.59;12.85;102443.44;5096283;28;20050;-79
2022/03/22 08:27:00;;;;;;;4.60;3.25;;;;;;;25.55;12.83;102448.56;5096379;28;20066;-80
2022/03/22 08:29:26;;;;;;;5.72;3.53;;;;;;;25.58;12.80;102437.13;5096635;28;20419;-79
2022/03/22 08:31:52;;;;;;;4.68;3.22;;;;;;;25.60;12.61;102445.13;5095558;28;20071;-80
2022/03/22 08:34:17;;;;;;;6.07;2.75;;;;;;;25.64;12.70;102444.38;5096525;28;20026;-80
2022/03/22 08:36:45;;;;;;;5.65;2.70;;;;;;;25.63;12.86;102440.00;5096431;28;20034;-80
2022/03/22 08:39:11;;;;;;;3.60;2.42;;;;;;;25.61;12.80;102431.19;5097048;28;20029;-79
2022/03/22 08:41:39;;;;;;;4.50;2.38;;;;;;;25.62;12.79;102441.06;5098317;28;20031;-80
2022/03/22 08:44:05;;;;;;;3.67;2.30;;;;;;;25.65;12.73;102437.84;5096119;28;20032;-78
2022/03/22 08:46:30;;;;;;;4.53;2.67;;;;;;;25.62;12.62;102441.06;5097499;28;20039;-80
2022/03/22 08:48:55;;;;;;;4.50;2.30;;;;;;;25.61;12.70;102433.06;5097140;28;20028;-79
2022/03/22 08:51:24;;;;;;;4.47;2.30;;;;;;;25.70;12.42;102430.81;5096604;28;20028;-79
2022/03/22 08:53:50;;;;;;;5.07;2.50;;;;;;;25.77;12.63;102431.53;5095384;28;20027;-79
2022/03/22 08:56:15;;;;;;;3.60;2.35;;;;;;;25.65;12.52;102426.91;5076485;28;20017;-79
2022/03/22 08:58:41;;;;;;;4.50;2.25;;;;;;;25.68;12.57;102425.56;5095307;28;20408;-79
2022/03/22 09:01:07;;;;;;;2.88;2.15;;;;;;;25.65;12.82;102423.34;5096278;28;20370;-80
2022/03/22 09:03:35;;;;;;;4.97;2.88;;;;;;;25.75;12.71;102430.91;5097198;28;20036;-80
2022/03/22 09:06:11;;;;;;;3.70;2.28;;;;;;;25.77;12.81;102423.31;5096529;28;20031;-79
2022/03/22 09:08:38;;;;;;;2.20;1.98;;;;;;;25.80;12.41;102420.94;5096330;28;20150;-80
2022/03/22 09:11:04;;;;;;;2.97;1.88;;;;;;;25.80;12.24;102420.06;5095888;28;20028;-79
2022/03/22 09:13:30;;;;;;;2.20;1.90;;;;;;;25.86;12.41;102416.38;5095314;28;20049;-80
2022/03/22 09:15:55;;;;;;;3.08;1.98;;;;;;;25.87;12.27;102415.28;5103883;28;20040;-80
2022/03/22 09:18:25;;;;;;;3.83;1.80;;;;;;;25.86;12.28;102410.91;5117668;28;20088;-80
2022/03/22 09:20:50;;;;;;;2.88;1.92;;;;;;;25.94;12.09;102424.28;5100362;28;20023;-77
2022/03/22 09:23:16;;;;;;;2.63;1.85;;;;;;;25.93;12.32;102419.81;5117787;28;20032;-77
2022/03/22 09:25:42;;;;;;;2.67;1.73;;;;;;;25.90;12.41;102414.81;5115868;28;20024;-77
2022/03/22 09:28:07;;;;;;;2.20;1.60;;;;;;;25.92;12.39;102414.59;5115793;28;20111;-77
2022/03/22 09:30:34;;;;;;;1.50;1.40;;;;;;;25.92;12.13;102409.94;5116423;28;20591;-77
2022/03/22 09:33:01;;;;;;;2.15;1.95;;;;;;;25.93;12.32;102417.09;5115573;28;20112;-77
2022/03/22 09:35:27;;;;;;;1.95;1.50;;;;;;;25.88;12.36;102403.28;5116286;28;20391;-77
2022/03/22 09:37:53;;;;;;;1.83;1.42;;;;;;;26.01;12.24;102408.53;5114796;28;20076;-77
2022/03/22 09:40:18;;;;;;;1.85;1.73;;;;;;;25.98;12.19;102409.00;5097183;28;20043;-77
2022/03/22 09:42:45;;;;;;;1.60;1.27;;;;;;;26.03;12.14;102411.84;5115491;28;20024;-77
2022/03/22 09:45:20;;;;;;;2.30;1.58;;;;;;;25.99;12.12;102410.69;5114334;28;20047;-77
2022/03/22 09:47:45;;;;;;;1.95;1.45;;;;;;;26.03;12.32;102406.38;5115560;28;20093;-78
2022/03/22 09:50:15;;;;;;;1.95;1.73;;;;;;;26.08;11.88;102407.53;5114519;28;20520;-76
2022/03/22 09:52:40;;;;;;;1.98;1.75;;;;;;;25.98;11.99;102399.97;5114412;28;20420;-76
2022/03/22 09:55:07;;;;;;;1.80;1.70;;;;;;;26.03;12.27;102405.53;5114317;28;20020;-75
2022/03/22 09:57:33;;;;;;;3.63;1.63;;;;;;;26.01;12.31;102403.03;5113949;28;20042;-75
2022/03/22 09:59:58;;;;;;;1.65;1.55;;;;;;;26.08;11.94;102402.91;5096101;28;20031;-75
2022/03/22 10:02:27;;;;;;;2.92;1.52;;;;;;;26.08;12.11;102396.56;5114310;28;20019;-75
2022/03/22 10:04:53;;;;;;;2.47;1.30;;;;;;;26.07;12.07;102400.41;5114953;28;20031;-74
2022/03/22 10:07:19;;;;;;;1.83;1.63;;;;;;;26.02;12.01;102385.50;5096185;28;20048;-75
2022/03/22 10:09:58;;;;;;;1.77;1.58;;;;;;;26.08;12.21;102391.09;5078845;28;20031;-75
2022/03/22 10:12:39;;;;;;;1.88;1.48;;;;;;;26.10;11.98;102386.22;5117280;28;20028;-74
2022/03/22 10:15:12;;;;;;;4.18;1.70;;;;;;;26.07;12.01;102379.31;5114000;28;20035;-74
2022/03/22 10:17:38;;;;;;;4.43;2.33;;;;;;;26.12;12.01;102376.69;5093916;28;20109;-73
2022/03/22 10:20:07;;;;;;;6.53;3.38;;;;;;;26.14;11.85;102379.19;5094318;28;20079;-74
2022/03/22 10:22:34;;;;;;;6.93;2.90;;;;;;;26.14;11.94;102373.69;5094270;28;20048;-74
2022/03/22 10:25:01;;;;;;;8.20;3.72;;;;;;;26.15;11.85;102375.38;5094613;28;20051;-74
2022/03/22 10:27:28;;;;;;;15.57;5.18;;;;;;;26.15;12.06;102365.22;5094914;28;20035;-79
2022/03/22 10:29:55;;;;;;;18.30;6.22;;;;;;;26.14;11.97;102362.72;5093860;28;20496;-79
2022/03/22 10:32:37;;;;;;;17.25;6.28;;;;;;;26.20;11.90;102359.03;5094164;28;20034;-79
2022/03/22 10:35:10;;;;;;;23.98;6.93;;;;;;;26.16;11.85;102360.56;5093704;28;20028;-79
2022/03/22 10:37:37;;;;;;;19.98;6.65;;;;;;;26.19;12.11;102351.88;5075162;28;20497;-79
2022/03/22 10:40:03;;;;;;;18.95;5.22;;;;;;;26.22;12.03;102354.13;5093843;28;20032;-79
2022/03/22 10:42:31;;;;;;;23.35;6.65;;;;;;;26.14;12.00;102357.25;5094208;28;20020;-81
2022/03/22 10:45:00;;;;;;;21.58;6.10;;;;;;;26.00;12.08;102346.56;5059868;28;20426;-80
2022/03/22 10:47:26;;;;;;;14.93;6.35;;;;;;;25.98;12.27;102343.25;5094436;28;20119;-80
2022/03/22 10:50:07;;;;;;;11.77;4.70;;;;;;;25.91;11.94;102342.53;5094307;28;20031;-78
2022/03/22 10:52:32;;;;;;;10.30;4.60;;;;;;;25.93;12.00;102345.88;5093817;28;20205;-79
2022/03/22 10:54:59;;;;;;;11.23;4.30;;;;;;;25.91;12.05;102342.53;5096846;28;20024;-80
2022/03/22 10:57:32;;;;;;;11.02;4.05;;;;;;;25.88;12.36;102343.03;5096769;28;20485;-80
2022/03/22 11:00:01;;;;;;;9.63;3.80;;;;;;;25.95;12.28;102338.25;5098178;28;20465;-79
2022/03/22 11:02:27;;;;;;;9.18;3.90;;;;;;;25.93;11.98;102323.94;5098057;28;20078;-80
2022/03/22 11:04:52;;;;;;;8.25;2.97;;;;;;;25.90;12.39;102327.16;5063501;28;20032;-79
2022/03/22 11:07:17;;;;;;;9.38;3.00;;;;;;;25.93;12.14;102321.22;5097379;28;20047;-79
2022/03/22 11:09:43;;;;;;;5.82;2.83;;;;;;;25.98;12.27;102320.53;5079445;28;20046;-79
2022/03/22 11:12:10;;;;;;;6.43;2.97;;;;;;;25.97;12.25;102325.16;5080173;28;20035;-79
2022/03/22 11:14:36;;;;;;;4.82;2.55;;;;;;;25.91;12.13;102317.88;5080816;28;20028;-79
2022/03/22 11:17:02;;;;;;;4.70;2.60;;;;;;;25.84;12.24;102315.28;5078499;28;20502;-78
2022/03/22 11:19:27;;;;;;;5.60;2.58;;;;;;;25.96;12.12;102318.03;5100289;28;20052;-78
2022/03/22 11:21:53;;;;;;;4.05;2.10;;;;;;;26.02;12.19;102313.47;5100734;28;20031;-79
2022/03/22 11:24:23;;;;;;;3.97;2.15;;;;;;;26.02;12.15;102306.06;5119082;28;20035;-80
2022/03/22 11:26:52;;;;;;;6.22;2.40;;;;;;;25.99;12.00;102314.81;5118348;28;20026;-79
2022/03/22 11:29:18;;;;;;;5.30;2.00;;;;;;;25.92;12.01;102318.72;5117782;28;20023;-79
2022/03/22 11:34:09;;;;;;;4.57;2.30;;;;;;;26.03;11.90;102307.75;5117936;28;20020;-78
2022/03/22 11:34:29;;;;;;;3.60;2.10;;;;;;;26.02;11.81;102303.31;5116972;28;20469;-78
2022/03/22 11:36:57;;;;;;;2.28;1.90;;;;;;;25.95;12.20;102301.81;5082818;28;20023;-78
2022/03/22 11:42:22;;;;;;;3.70;2.15;;;;;;;25.86;12.07;102298.63;5118163;28;20479;-76
2022/03/22 11:44:58;;;;;;;1.80;1.60;;;;;;;26.09;11.76;102299.63;5117667;28;20062;-76
2022/03/22 11:47:24;;;;;;;2.55;1.83;;;;;;;26.06;11.72;102284.50;5116756;28;20055;-76
2022/03/22 11:50:06;;;;;;;1.88;1.50;;;;;;;26.04;11.82;102287.50;5117239;28;20022;-76
2022/03/22 11:52:39;;;;;;;2.78;1.52;;;;;;;25.97;12.26;102281.31;5117382;28;20537;-76